Time;durP1;ratioP1;P1;durP2;ratioP2;P2;SDS_P1;SDS_P2;PMS_P1;PMS_P2;Temp;Humidity;BMP_temperature;BMP_pressure;BME280_temperature;BME280_humidity;BME280_pressure;Samples;Min_cycle;Max_cycle;Signal;HPM_P1;HPM_P2
2023/07/23 06:14:03;;;;;;;;;;;;;;;;;;5547235;22;19929;-95
2023/07/23 08:29:06;;;;;;;;;;;;;;;;;;4952598;28;19930;-94
2023/07/23 08:31:33;;;;;;;;;;;;;;;;;;4958459;28;19977;-95
2023/07/23 08:34:01;;;;;;;;;;;;;;;;;;4958777;29;19926;-96
2023/07/23 08:36:26;;;;;;;;;;;;;;;;;;4957614;28;19918;-94
2023/07/23 08:38:52;;;;;;;;;;;;;;;;;;4958173;29;19926;-93
2023/07/23 08:41:38;;;;;;;;;;;;;;;;;;4958073;28;19919;-89
2023/07/23 08:44:21;;;;;;;;;;;;;;;;;;4938297;29;19919;-91
2023/07/23 08:46:47;;;;;;;;;;;;;;;;;;4956771;28;19919;-92
2023/07/23 08:49:15;;;;;;;;;;;;;;;;;;4957028;28;20408;-92
2023/07/23 08:51:45;;;;;;;;;;;;;;;;;;4957704;28;19919;-90
2023/07/23 08:54:11;;;;;;;;;;;;;;;;;;4958002;29;19919;-90
2023/07/23 08:56:37;;;;;;;;;;;;;;;;;;4956102;29;20009;-90
2023/07/23 08:59:04;;;;;;;;;;;;;;;;;;4957614;29;20017;-89
2023/07/23 09:01:39;;;;;;;;;;;;;;;;;;4957537;28;19989;-90
2023/07/23 09:04:05;;;;;;;;;;;;;;;;;;4957429;28;19923;-89
2023/07/23 09:06:31;;;;;;;;;;;;;;;;;;4957358;29;19925;-88
2023/07/23 09:09:07;;;;;;;;;;;;;;;;;;4957302;29;19962;-89
2023/07/23 09:11:33;;;;;;;;;;;;;;;;;;4957420;28;19925;-90
2023/07/23 09:14:02;;;;;;;;;;;;;;;;;;4955874;29;19918;-90
2023/07/23 09:16:27;;;;;;;;;;;;;;;;;;4957158;28;19946;-90
2023/07/23 09:18:53;;;;;;;;;;;;;;;;;;4957229;29;19919;-90
2023/07/23 09:21:22;;;;;;;;;;;;;;;;;;4955664;28;20020;-89
2023/07/23 09:23:50;;;;;;;;;;;;;;;;;;4957085;28;19956;-90
2023/07/23 09:26:18;;;;;;;;;;;;;;;;;;4971740;28;19914;-88
2023/07/23 09:28:44;;;;;;;;;;;;;;;;;;4953526;29;19923;-89
2023/07/23 09:31:10;;;;;;;;;;;;;;;;;;4956758;28;19941;-89
2023/07/23 09:33:35;;;;;;;;;;;;;;;;;;4955423;29;19919;-88
2023/07/23 09:36:02;;;;;;;;;;;;;;;;;;4941607;29;20349;-91
2023/07/23 09:38:28;;;;;;;;;;;;;;;;;;4940333;29;19925;-91
2023/07/23 09:40:54;;;;;;;;;;;;;;;;;;4957460;28;19965;-96
2023/07/23 09:43:21;;;;;;;;;;;;;;;;;;4940470;29;19926;-91
2023/07/23 09:45:46;;;;;;;;;;;;;;;;;;4956818;28;19989;-92
2023/07/23 09:48:14;;;;;;;;;;;;;;;;;;4955553;28;20377;-91
2023/07/23 09:50:40;;;;;;;;;;;;;;;;;;4939769;29;19925;-91
2023/07/23 09:53:07;;;;;;;;;;;;;;;;;;4956508;29;19922;-91
2023/07/23 09:55:34;;;;;;;;;;;;;;;;;;4956629;28;19929;-91
2023/07/23 09:58:09;;;;;;;;;;;;;;;;;;4944636;29;19918;-94
2023/07/23 10:00:34;;;;;;;;;;;;;;;;;;4947257;29;19918;-96
2023/07/23 15:21:23;;;;;;;;;;;;;;;;;;5020380;28;19925;-91
2023/07/23 15:23:50;;;;;;;;;;;;;;;;;;5009189;28;19953;-92
2023/07/23 15:26:17;;;;;;;;;;;;;;;;;;5029104;28;19953;-93
2023/07/23 15:28:44;;;;;;;;;;;;;;;;;;5012446;28;19967;-86
2023/07/23 15:31:09;;;;;;;;;;;;;;;;;;5012264;28;19917;-86
2023/07/23 15:33:34;;;;;;;;;;;;;;;;;;5013540;28;19917;-87
2023/07/23 15:36:00;;;;;;;;;;;;;;;;;;5014977;28;19949;-86
2023/07/23 15:38:25;;;;;;;;;;;;;;;;;;5032975;28;20273;-87
2023/07/23 15:40:50;;;;;;;;;;;;;;;;;;5033191;28;19925;-86
2023/07/23 15:43:16;;;;;;;;;;;;;;;;;;5033071;28;19924;-85
2023/07/23 15:45:41;;;;;;;;;;;;;;;;;;5035218;28;19921;-87
2023/07/23 15:48:07;;;;;;;;;;;;;;;;;;5036468;28;19963;-86
2023/07/23 15:50:32;;;;;;;;;;;;;;;;;;5036810;28;19917;-86
2023/07/23 15:52:57;;;;;;;;;;;;;;;;;;5035992;28;19967;-87
2023/07/23 15:55:23;;;;;;;;;;;;;;;;;;5016743;28;19918;-87
2023/07/23 15:57:48;;;;;;;;;;;;;;;;;;5016942;28;19971;-86
2023/07/23 16:00:14;;;;;;;;;;;;;;;;;;5016825;28;19917;-88
2023/07/23 16:02:39;;;;;;;;;;;;;;;;;;5016522;28;20019;-85
2023/07/23 16:05:05;;;;;;;;;;;;;;;;;;4999219;28;19922;-88
2023/07/23 16:07:30;;;;;;;;;;;;;;;;;;5016869;28;19917;-86
2023/07/23 16:09:55;;;;;;;;;;;;;;;;;;5016712;28;19944;-86
2023/07/23 16:12:21;;;;;;;;;;;;;;;;;;5034081;28;19927;-88
2023/07/23 16:14:46;;;;;;;;;;;;;;;;;;5036270;28;20356;-86
2023/07/23 16:17:11;;;;;;;;;;;;;;;;;;5036619;28;19925;-86
2023/07/23 16:19:37;;;;;;;;;;;;;;;;;;5036829;28;19922;-86
2023/07/23 16:22:02;;;;;;;;;;;;;;;;;;5036379;28;20371;-88
2023/07/23 16:24:28;;;;;;;;;;;;;;;;;;5035894;28;20368;-88
2023/07/23 16:26:54;;;;;;;;;;;;;;;;;;5016473;28;19917;-86
2023/07/23 16:29:19;;;;;;;;;;;;;;;;;;5035436;28;19917;-88
2023/07/23 16:31:45;;;;;;;;;;;;;;;;;;5035048;28;19917;-87
2023/07/23 16:34:11;;;;;;;;;;;;;;;;;;5036000;28;20316;-86
2023/07/23 16:36:38;;;;;;;;;;;;;;;;;;5036091;28;19917;-85
2023/07/23 16:39:04;;;;;;;;;;;;;;;;;;5036193;28;19917;-87
2023/07/23 16:41:29;;;;;;;;;;;;;;;;;;5036055;28;19924;-86
2023/07/23 16:43:56;;;;;;;;;;;;;;;;;;5036166;28;19940;-86
2023/07/23 16:46:21;;;;;;;;;;;;;;;;;;5035997;28;20391;-87
2023/07/23 16:48:46;;;;;;;;;;;;;;;;;;5036362;28;19924;-87
2023/07/23 16:51:12;;;;;;;;;;;;;;;;;;5035689;28;19917;-86
2023/07/23 16:53:37;;;;;;;;;;;;;;;;;;5035606;28;19949;-87
2023/07/23 16:56:02;;;;;;;;;;;;;;;;;;5035608;28;20336;-85
2023/07/23 16:58:28;;;;;;;;;;;;;;;;;;5035403;28;20283;-87
2023/07/23 17:00:54;;;;;;;;;;;;;;;;;;5017717;28;19917;-85
2023/07/23 17:03:19;;;;;;;;;;;;;;;;;;5035725;28;19960;-85
2023/07/23 17:05:45;;;;;;;;;;;;;;;;;;5017870;28;19917;-85
2023/07/23 17:08:10;;;;;;;;;;;;;;;;;;5035316;28;20390;-87
2023/07/23 17:10:35;;;;;;;;;;;;;;;;;;5035377;28;19921;-87
2023/07/23 17:13:01;;;;;;;;;;;;;;;;;;5035646;28;19925;-86
2023/07/23 17:15:27;;;;;;;;;;;;;;;;;;5035581;28;19924;-86
2023/07/23 17:17:52;;;;;;;;;;;;;;;;;;5035121;28;20290;-86
2023/07/23 17:20:17;;;;;;;;;;;;;;;;;;5035392;28;20016;-83
2023/07/23 17:22:43;;;;;;;;;;;;;;;;;;5035294;28;20349;-83
2023/07/23 17:25:08;;;;;;;;;;;;;;;;;;5035212;28;19921;-86
2023/07/23 17:27:33;;;;;;;;;;;;;;;;;;5034794;28;20314;-83
2023/07/23 17:29:59;;;;;;;;;;;;;;;;;;5035547;28;20310;-84
2023/07/23 17:32:24;;;;;;;;;;;;;;;;;;5035163;28;20260;-84
2023/07/23 17:34:50;;;;;;;;;;;;;;;;;;5034812;28;20425;-83
2023/07/23 17:37:15;;;;;;;;;;;;;;;;;;5034757;28;19917;-85
2023/07/23 17:39:41;;;;;;;;;;;;;;;;;;5035053;28;20405;-84
2023/07/23 17:42:06;;;;;;;;;;;;;;;;;;5034580;28;19924;-82
2023/07/23 17:44:31;;;;;;;;;;;;;;;;;;5034655;28;20387;-83
2023/07/23 17:47:02;;;;;;;;;;;;;;;;;;5034741;28;19953;-84
2023/07/23 17:49:27;;;;;;;;;;;;;;;;;;5034612;28;20307;-87
2023/07/23 17:51:53;;;;;;;;;;;;;;;;;;5034916;28;19917;-85
2023/07/23 17:54:19;;;;;;;;;;;;;;;;;;5034387;28;20342;-87
2023/07/23 17:56:44;;;;;;;;;;;;;;;;;;5034440;28;19971;-86
2023/07/23 17:59:11;;;;;;;;;;;;;;;;;;5016814;28;19924;-85
2023/07/23 18:01:36;;;;;;;;;;;;;;;;;;5034542;28;19960;-85
2023/07/23 18:04:05;;;;;;;;;;;;;;;;;;5034654;28;19917;-85
2023/07/23 18:06:30;;;;;;;;;;;;;;;;;;5034352;28;19913;-85
2023/07/23 18:08:56;;;;;;;;;;;;;;;;;;5033649;28;19924;-84
2023/07/23 18:11:21;;;;;;;;;;;;;;;;;;5034028;28;19924;-84
2023/07/23 18:13:46;;;;;;;;;;;;;;;;;;5016695;28;19917;-83
2023/07/23 18:16:12;;;;;;;;;;;;;;;;;;5035797;28;19917;-94
2023/07/23 18:18:37;;;;;;;;;;;;;;;;;;5034401;28;19913;-84
2023/07/23 18:21:02;;;;;;;;;;;;;;;;;;5034144;28;19921;-86
2023/07/23 18:23:28;;;;;;;;;;;;;;;;;;5035421;28;20007;-84
2023/07/23 18:25:54;;;;;;;;;;;;;;;;;;5037803;28;19917;-86
2023/07/23 18:28:20;;;;;;;;;;;;;;;;;;5022846;28;19972;-94
2023/07/23 18:30:45;;;;;;;;;;;;;;;;;;5019407;28;19985;-95
2023/07/23 18:33:10;;;;;;;;;;;;;;;;;;5039490;28;20090;-93
2023/07/23 18:35:36;;;;;;;;;;;;;;;;;;5037457;28;19917;-93
2023/07/23 18:38:01;;;;;;;;;;;;;;;;;;5034431;28;19921;-88
2023/07/23 18:40:27;;;;;;;;;;;;;;;;;;5034552;28;19923;-94
2023/07/23 18:42:52;;;;;;;;;;;;;;;;;;5018078;28;19963;-82
2023/07/23 18:45:17;;;;;;;;;;;;;;;;;;5034717;28;19943;-84
2023/07/23 18:47:43;;;;;;;;;;;;;;;;;;5033993;28;20272;-83
2023/07/23 18:50:08;;;;;;;;;;;;;;;;;;5034421;28;19924;-83
2023/07/23 18:52:34;;;;;;;;;;;;;;;;;;5034496;28;19917;-90
2023/07/23 18:54:59;;;;;;;;;;;;;;;;;;5034182;28;19920;-91
2023/07/23 18:57:25;;;;;;;;;;;;;;;;;;5033918;28;19924;-91
2023/07/23 18:59:50;;;;;;;;;;;;;;;;;;5034149;28;19924;-84
2023/07/23 19:02:16;;;;;;;;;;;;;;;;;;5033677;28;19924;-95
2023/07/23 19:04:42;;;;;;;;;;;;;;;;;;5033806;28;19921;-85
2023/07/23 19:07:07;;;;;;;;;;;;;;;;;;5034133;28;19924;-86
2023/07/23 19:09:33;;;;;;;;;;;;;;;;;;5033918;28;19964;-93
2023/07/23 19:11:58;;;;;;;;;;;;;;;;;;5033924;28;19917;-84
2023/07/23 19:14:24;;;;;;;;;;;;;;;;;;5033807;28;19924;-83
2023/07/23 19:16:49;;;;;;;;;;;;;;;;;;5033482;28;19971;-85
2023/07/23 19:19:14;;;;;;;;;;;;;;;;;;5033771;28;19917;-93
2023/07/23 19:21:40;;;;;;;;;;;;;;;;;;5019356;28;20275;-84
2023/07/23 19:24:05;;;;;;;;;;;;;;;;;;5037318;28;19924;-89
2023/07/23 19:26:31;;;;;;;;;;;;;;;;;;5037331;28;19924;-86
2023/07/23 19:28:56;;;;;;;;;;;;;;;;;;5037352;28;19924;-84
2023/07/23 19:31:21;;;;;;;;;;;;;;;;;;5037590;28;19921;-86
2023/07/23 19:33:46;;;;;;;;;;;;;;;;;;5037307;28;19917;-84
2023/07/23 19:36:12;;;;;;;;;;;;;;;;;;5037328;28;20322;-84
2023/07/23 19:38:37;;;;;;;;;;;;;;;;;;5037278;28;19917;-95
2023/07/23 19:41:02;;;;;;;;;;;;;;;;;;5037552;28;19963;-91
2023/07/23 19:43:28;;;;;;;;;;;;;;;;;;5037750;28;20382;-94
2023/07/23 19:45:54;;;;;;;;;;;;;;;;;;5038142;28;19921;-84
2023/07/23 19:48:20;;;;;;;;;;;;;;;;;;5038071;28;19917;-95
2023/07/23 19:50:45;;;;;;;;;;;;;;;;;;5038649;28;19996;-94
2023/07/23 19:53:10;;;;;;;;;;;;;;;;;;5037924;28;19917;-94
2023/07/23 19:55:36;;;;;;;;;;;;;;;;;;5037345;28;20008;-89
2023/07/23 19:58:01;;;;;;;;;;;;;;;;;;5037012;28;20345;-89
2023/07/23 20:00:26;;;;;;;;;;;;;;;;;;5037107;28;20410;-92
2023/07/23 20:02:52;;;;;;;;;;;;;;;;;;5036944;28;19940;-84
2023/07/23 20:05:17;;;;;;;;;;;;;;;;;;5036801;28;19924;-86
2023/07/23 20:07:42;;;;;;;;;;;;;;;;;;5036529;28;19933;-86
2023/07/23 20:10:08;;;;;;;;;;;;;;;;;;5036925;28;19940;-95
2023/07/23 20:12:33;;;;;;;;;;;;;;;;;;5037153;28;19921;-86
2023/07/23 20:14:59;;;;;;;;;;;;;;;;;;5036828;28;19918;-90
2023/07/23 20:17:24;;;;;;;;;;;;;;;;;;5036996;28;19917;-91
2023/07/23 20:19:49;;;;;;;;;;;;;;;;;;5036883;28;19921;-95
2023/07/23 20:22:14;;;;;;;;;;;;;;;;;;5036371;28;20368;-84
2023/07/23 20:24:41;;;;;;;;;;;;;;;;;;5036425;28;19971;-88
2023/07/23 20:27:06;;;;;;;;;;;;;;;;;;5036488;28;19963;-86
2023/07/23 20:29:31;;;;;;;;;;;;;;;;;;5037164;28;19921;-94
2023/07/23 20:31:57;;;;;;;;;;;;;;;;;;5018754;28;19921;-87
2023/07/23 20:34:22;;;;;;;;;;;;;;;;;;5036674;28;19923;-94
2023/07/23 20:36:48;;;;;;;;;;;;;;;;;;5036408;28;20275;-84
2023/07/23 20:39:13;;;;;;;;;;;;;;;;;;5036318;28;20287;-84
2023/07/23 20:41:39;;;;;;;;;;;;;;;;;;5036032;28;20363;-84
2023/07/23 20:44:04;;;;;;;;;;;;;;;;;;5036211;28;20337;-85
2023/07/23 20:46:29;;;;;;;;;;;;;;;;;;5036134;28;20386;-85
2023/07/23 20:48:55;;;;;;;;;;;;;;;;;;5036149;28;19917;-90
2023/07/23 20:51:20;;;;;;;;;;;;;;;;;;5035853;28;19996;-91
2023/07/23 20:53:47;;;;;;;;;;;;;;;;;;5035997;28;19952;-88
2023/07/23 20:56:13;;;;;;;;;;;;;;;;;;5035867;28;19917;-87
2023/07/23 20:58:38;;;;;;;;;;;;;;;;;;5035814;28;19940;-90
2023/07/23 21:01:03;;;;;;;;;;;;;;;;;;5017954;28;20367;-93
2023/07/23 21:03:29;;;;;;;;;;;;;;;;;;5035658;28;20360;-83
2023/07/23 21:05:55;;;;;;;;;;;;;;;;;;5035781;28;19917;-84
2023/07/23 21:08:20;;;;;;;;;;;;;;;;;;5035428;28;20290;-89
2023/07/23 21:10:49;;;;;;;;;;;;;;;;;;5035722;28;20391;-91
2023/07/23 21:13:14;;;;;;;;;;;;;;;;;;5035735;28;19957;-85
2023/07/23 21:15:40;;;;;;;;;;;;;;;;;;5035673;28;20101;-91
2023/07/23 21:18:05;;;;;;;;;;;;;;;;;;5036289;28;20441;-92
2023/07/23 21:20:31;;;;;;;;;;;;;;;;;;5038391;28;20413;-85
2023/07/23 21:22:56;;;;;;;;;;;;;;;;;;5037718;28;20386;-93
